createdAt,value
2018-12-11T00:01:04.699Z,98969.49
2018-12-11T00:03:33.789Z,98972.58
2018-12-11T00:06:02.507Z,98968.78
2018-12-11T00:08:31.851Z,98973.64
2018-12-11T00:11:00.923Z,98977.64
2018-12-11T00:13:30.214Z,98982.88
2018-12-11T00:15:59.283Z,98981.56
2018-12-11T00:18:28.005Z,98991.27
2018-12-11T00:20:57.160Z,98996.16
2018-12-11T00:23:26.170Z,99006.31
2018-12-11T00:25:55.128Z,99013.19
2018-12-11T00:28:24.189Z,99010.64
2018-12-11T00:30:53.078Z,99018.11
2018-12-11T00:33:21.723Z,99026.95
2018-12-11T00:35:50.814Z,99025.97
2018-12-11T00:38:19.557Z,99038.67
2018-12-11T00:40:48.617Z,99040.05
2018-12-11T00:43:17.507Z,99047.45
2018-12-11T00:45:46.410Z,99049.61
2018-12-11T00:48:15.493Z,99054.07
2018-12-11T00:50:44.534Z,99042.73
2018-12-11T00:53:13.282Z,99048.37
2018-12-11T00:55:42.364Z,99043.98
2018-12-11T00:58:11.507Z,99043.13
2018-12-11T01:00:40.550Z,99039.34
2018-12-11T01:03:09.565Z,99038.59
2018-12-11T01:05:38.739Z,99035.29
2018-12-11T01:08:07.721Z,99046.33
2018-12-11T01:10:37.063Z,99035.85
2018-12-11T01:13:05.841Z,99035.98
2018-12-11T01:15:35.117Z,99032.65
2018-12-11T01:18:03.951Z,99040.97
2018-12-11T01:20:32.919Z,99036.25
2018-12-11T01:23:02.127Z,99033.67
2018-12-11T01:25:30.935Z,99036.42
2018-12-11T01:28:00.128Z,99044.21
2018-12-11T01:30:28.847Z,99041.86
2018-12-11T01:32:57.889Z,99037.25
2018-12-11T01:35:27.077Z,99042.22
2018-12-11T01:37:55.969Z,99044.91
2018-12-11T01:40:24.913Z,99032.92
2018-12-11T01:42:53.941Z,99045.63
2018-12-11T01:45:22.755Z,99036.52
2018-12-11T01:47:51.653Z,99029.00
2018-12-11T01:50:20.457Z,99031.75
2018-12-11T01:52:49.082Z,99025.73
2018-12-11T01:55:18.004Z,99025.56
2018-12-11T01:57:47.341Z,99036.95
2018-12-11T02:00:16.157Z,99029.39
2018-12-11T02:02:45.289Z,99031.28
2018-12-11T02:05:14.016Z,99035.63
2018-12-11T02:07:43.063Z,99028.36
2018-12-11T02:10:12.771Z,99027.33
2018-12-11T02:12:41.537Z,99034.85
2018-12-11T02:15:10.447Z,99028.41
2018-12-11T02:17:39.523Z,99029.25
2018-12-11T02:20:09.492Z,99021.80
2018-12-11T02:22:38.716Z,99019.94
2018-12-11T02:25:07.631Z,99016.63
2018-12-11T02:27:36.358Z,99016.56
2018-12-11T02:30:05.907Z,99025.78
2018-12-11T02:32:34.726Z,99023.11
2018-12-11T02:35:03.934Z,99018.23
2018-12-11T02:37:33.053Z,99023.96
2018-12-11T02:40:02.164Z,99020.27
2018-12-11T02:42:31.270Z,99024.78
2018-12-11T02:44:59.992Z,99020.95
2018-12-11T02:47:29.002Z,99025.85
2018-12-11T02:49:57.771Z,99024.79
2018-12-11T02:52:26.637Z,99018.02
2018-12-11T02:54:55.540Z,99017.16
2018-12-11T02:57:24.676Z,99012.97
2018-12-11T02:59:53.711Z,99013.91
2018-12-11T03:02:22.774Z,99014.22
2018-12-11T03:04:51.438Z,99010.75
2018-12-11T03:07:20.154Z,99017.16
2018-12-11T03:09:48.924Z,99013.42
2018-12-11T03:12:18.043Z,99013.88
2018-12-11T03:14:47.111Z,99010.75
2018-12-11T03:17:16.229Z,99010.81
2018-12-11T03:19:45.310Z,99006.06
2018-12-11T03:22:14.097Z,99008.66
2018-12-11T03:24:42.895Z,99004.73
2018-12-11T03:27:12.001Z,99002.99
2018-12-11T03:29:41.249Z,99001.23
2018-12-11T03:32:10.283Z,99006.03
2018-12-11T03:34:39.281Z,99003.84
2018-12-11T03:37:08.374Z,99009.72
2018-12-11T03:39:37.096Z,99009.59
2018-12-11T03:42:06.087Z,99011.02
2018-12-11T03:44:35.049Z,99014.30
2018-12-11T03:47:04.552Z,99016.50
2018-12-11T03:49:33.467Z,99012.33
2018-12-11T03:52:02.162Z,99014.95
2018-12-11T03:54:31.237Z,99020.23
2018-12-11T03:56:59.963Z,99015.19
2018-12-11T03:59:28.685Z,99020.45
2018-12-11T04:01:57.783Z,99018.87
2018-12-11T04:04:26.894Z,99020.23
2018-12-11T04:06:55.840Z,99028.41
2018-12-11T04:09:24.593Z,99028.94
2018-12-11T04:11:53.897Z,99029.12
2018-12-11T04:14:23.104Z,99043.59
2018-12-11T04:16:52.067Z,99041.77
2018-12-11T04:19:20.758Z,99046.27
2018-12-11T04:21:49.450Z,99049.27
2018-12-11T04:24:18.310Z,99048.42
2018-12-11T04:26:47.297Z,99055.36
2018-12-11T04:29:16.426Z,99051.44
2018-12-11T04:31:45.543Z,99050.98
2018-12-11T04:34:14.476Z,99054.05
2018-12-11T04:36:44.334Z,99057.97
2018-12-11T04:39:13.247Z,99055.73
2018-12-11T04:41:42.509Z,99061.05
2018-12-11T04:44:11.694Z,99064.52
2018-12-11T04:46:40.462Z,99060.65
2018-12-11T04:49:09.290Z,99065.03
2018-12-11T04:51:38.003Z,99060.38
2018-12-11T04:54:07.437Z,99060.04
2018-12-11T04:56:36.662Z,99059.61
2018-12-11T04:59:05.383Z,99058.03
2018-12-11T05:01:34.548Z,99058.55
2018-12-11T05:04:03.637Z,99069.34
2018-12-11T05:06:33.491Z,99076.51
2018-12-11T05:09:02.898Z,99072.78
2018-12-11T05:11:31.736Z,99079.84
2018-12-11T05:14:00.980Z,99083.88
2018-12-11T05:16:29.924Z,99076.48
2018-12-11T05:18:58.919Z,99082.66
2018-12-11T05:21:28.025Z,99097.94
2018-12-11T05:23:56.755Z,99100.21
2018-12-11T05:26:25.817Z,99095.33
2018-12-11T05:28:54.922Z,99108.51
2018-12-11T05:31:23.604Z,99101.69
2018-12-11T05:33:52.706Z,99111.27
2018-12-11T05:36:21.579Z,99110.78
2018-12-11T05:38:50.493Z,99127.26
2018-12-11T05:41:19.345Z,99125.33
2018-12-11T05:43:48.324Z,99115.98
2018-12-11T05:46:17.183Z,99129.56
2018-12-11T05:48:46.392Z,99133.37
2018-12-11T05:51:15.444Z,99133.82
2018-12-11T05:53:50.469Z,99141.27
2018-12-11T05:56:19.226Z,99144.73
2018-12-11T05:58:48.188Z,99147.80
2018-12-11T06:01:17.362Z,99151.22
2018-12-11T06:03:46.303Z,99161.93
2018-12-11T06:06:15.391Z,99157.09
2018-12-11T06:08:44.592Z,99160.63
2018-12-11T06:11:13.658Z,99164.94
2018-12-11T06:13:42.471Z,99166.70
2018-12-11T06:16:11.324Z,99177.95
2018-12-11T06:18:40.133Z,99184.55
2018-12-11T06:21:09.535Z,99183.64
2018-12-11T06:23:40.104Z,99192.22
2018-12-11T06:26:09.163Z,99192.96
2018-12-11T06:28:37.925Z,99196.75
2018-12-11T06:31:06.955Z,99201.35
2018-12-11T06:33:36.154Z,99209.57
2018-12-11T06:36:05.205Z,99200.19
2018-12-11T06:38:34.197Z,99220.00
2018-12-11T06:41:03.396Z,99223.24
2018-12-11T06:43:32.404Z,99222.30
2018-12-11T06:46:01.292Z,99211.61
2018-12-11T06:48:30.202Z,99219.71
2018-12-11T06:50:58.905Z,99216.13
2018-12-11T06:53:29.185Z,99220.84
2018-12-11T06:55:58.369Z,99201.73
2018-12-11T06:58:27.407Z,99224.25
2018-12-11T07:00:56.474Z,99226.66
2018-12-11T07:03:25.481Z,99222.22
2018-12-11T07:05:54.464Z,99222.41
2018-12-11T07:08:23.264Z,99221.89
2018-12-11T07:10:51.957Z,99228.89
2018-12-11T07:13:21.043Z,99225.70
2018-12-11T07:15:50.240Z,99224.78
2018-12-11T07:18:19.178Z,99227.77
2018-12-11T07:20:48.749Z,99230.27
2018-12-11T07:23:17.836Z,99232.31
2018-12-11T07:25:46.942Z,99238.64
2018-12-11T07:28:15.988Z,99230.66
2018-12-11T07:30:45.102Z,99236.60
2018-12-11T07:33:13.862Z,99231.11
2018-12-11T07:35:42.524Z,99239.73
2018-12-11T07:38:11.489Z,99235.53
2018-12-11T07:40:40.422Z,99243.56
2018-12-11T07:43:09.201Z,99236.36
2018-12-11T07:45:38.064Z,99238.77
2018-12-11T07:48:06.826Z,99240.24
2018-12-11T07:50:36.137Z,99243.12
2018-12-11T07:53:06.608Z,99242.94
2018-12-11T07:55:36.092Z,99251.88
2018-12-11T07:58:05.256Z,99251.69
2018-12-11T08:00:34.148Z,99263.72
2018-12-11T08:03:03.155Z,99267.33
2018-12-11T08:05:32.145Z,99270.82
2018-12-11T08:08:01.249Z,99266.44
2018-12-11T08:10:30.059Z,99270.03
2018-12-11T08:12:59.126Z,99276.85
2018-12-11T08:15:28.432Z,99275.25
2018-12-11T08:17:57.355Z,99280.63
2018-12-11T08:20:26.085Z,99273.26
2018-12-11T08:22:55.069Z,99279.97
2018-12-11T08:25:24.307Z,99279.91
2018-12-11T08:27:53.423Z,99274.99
2018-12-11T08:30:22.167Z,99283.61
2018-12-11T08:32:51.686Z,99283.16
2018-12-11T08:35:20.901Z,99284.42
2018-12-11T08:37:50.057Z,99286.59
2018-12-11T08:40:19.077Z,99289.99
2018-12-11T08:42:47.753Z,99284.91
2018-12-11T08:45:16.525Z,99287.94
2018-12-11T08:47:45.560Z,99271.98
2018-12-11T08:50:14.662Z,99279.14
2018-12-11T08:52:43.347Z,99280.84
2018-12-11T08:55:12.077Z,99276.78
2018-12-11T08:57:42.369Z,99278.41
2018-12-11T09:00:11.333Z,99270.81
2018-12-11T09:02:40.912Z,99275.29
2018-12-11T09:05:10.435Z,99270.43
2018-12-11T09:07:39.133Z,99275.86
2018-12-11T09:10:08.337Z,99274.16
2018-12-11T09:12:37.352Z,99282.10
2018-12-11T09:15:06.752Z,99269.37
2018-12-11T09:17:35.813Z,99259.08
2018-12-11T09:20:04.770Z,99261.48
2018-12-11T09:22:33.650Z,99256.45
2018-12-11T09:25:02.372Z,99262.34
2018-12-11T09:27:31.399Z,99259.39
2018-12-11T09:30:00.595Z,99262.48
2018-12-11T09:32:29.582Z,99254.31
2018-12-11T09:34:58.336Z,99252.44
2018-12-11T09:37:27.411Z,99240.39
2018-12-11T09:39:57.074Z,99255.98
2018-12-11T09:42:28.114Z,99250.91
2018-12-11T09:44:57.304Z,99234.73
2018-12-11T09:47:26.214Z,99241.84
2018-12-11T09:49:55.012Z,99240.92
2018-12-11T09:52:23.786Z,99242.22
2018-12-11T09:54:52.622Z,99232.61
2018-12-11T09:57:21.681Z,99227.74
2018-12-11T09:59:50.758Z,99227.59
2018-12-11T10:02:19.675Z,99237.95
2018-12-11T10:04:48.661Z,99221.02
2018-12-11T10:07:17.711Z,99221.38
2018-12-11T10:09:47.357Z,99221.27
2018-12-11T10:12:16.936Z,99217.67
2018-12-11T10:14:45.561Z,99208.20
2018-12-11T10:17:15.235Z,99202.55
2018-12-11T10:19:44.541Z,99211.80
2018-12-11T10:22:13.666Z,99197.56
2018-12-11T10:24:43.073Z,99198.92
2018-12-11T10:27:11.833Z,99204.68
2018-12-11T10:29:40.541Z,99200.12
2018-12-11T10:32:09.637Z,99197.80
2018-12-11T10:34:38.331Z,99199.54
2018-12-11T10:37:07.143Z,99203.05
2018-12-11T10:39:36.093Z,99201.97
2018-12-11T10:42:05.312Z,99193.13
2018-12-11T10:44:34.378Z,99198.03
2018-12-11T10:47:03.404Z,99192.53
2018-12-11T10:49:32.651Z,99180.32
2018-12-11T10:52:01.408Z,99193.77
2018-12-11T10:54:30.554Z,99199.70
2018-12-11T10:56:59.395Z,99191.22
2018-12-11T10:59:28.214Z,99197.83
2018-12-11T11:01:59.401Z,99196.17
2018-12-11T11:04:28.614Z,99198.75
2018-12-11T11:06:57.260Z,99197.96
2018-12-11T11:09:26.139Z,99198.67
2018-12-11T11:11:55.173Z,99197.69
2018-12-11T11:14:25.243Z,99198.39
2018-12-11T11:16:54.540Z,99202.42
2018-12-11T11:19:23.571Z,99205.02
2018-12-11T11:21:52.667Z,99200.61
2018-12-11T11:24:21.384Z,99206.72
2018-12-11T11:26:50.972Z,99199.84
2018-12-11T11:29:19.951Z,99202.11
2018-12-11T11:31:50.435Z,99193.47
2018-12-11T11:34:19.157Z,99206.63
2018-12-11T11:36:48.204Z,99201.08
2018-12-11T11:39:16.989Z,99201.45
2018-12-11T11:41:46.228Z,99200.90
2018-12-11T11:44:15.154Z,99204.66
2018-12-11T11:46:43.905Z,99204.41
2018-12-11T11:49:12.591Z,99202.42
2018-12-11T11:51:41.689Z,99209.81
2018-12-11T11:54:10.440Z,99217.47
2018-12-11T11:56:39.512Z,99231.06
2018-12-11T11:59:08.211Z,99226.42
2018-12-11T12:01:37.273Z,99225.50
2018-12-11T12:04:06.365Z,99225.96
2018-12-11T12:06:35.459Z,99223.44
2018-12-11T12:09:05.496Z,99230.56
2018-12-11T12:11:34.472Z,99229.31
2018-12-11T12:14:03.754Z,99230.04
2018-12-11T12:16:32.774Z,99231.87
2018-12-11T12:19:01.534Z,99244.22
2018-12-11T12:21:30.462Z,99236.14
2018-12-11T12:23:59.249Z,99239.97
2018-12-11T12:26:28.468Z,99252.58
2018-12-11T12:28:57.642Z,99251.61
2018-12-11T12:31:26.682Z,99254.13
2018-12-11T12:33:55.635Z,99246.91
2018-12-11T12:36:24.414Z,99265.11
2018-12-11T12:38:53.487Z,99256.53
2018-12-11T12:41:23.358Z,99260.47
2018-12-11T12:43:52.446Z,99264.61
2018-12-11T12:46:21.851Z,99264.53
2018-12-11T12:48:51.752Z,99262.52
2018-12-11T12:51:20.815Z,99264.92
2018-12-11T12:53:49.561Z,99263.02
2018-12-11T12:56:18.343Z,99250.73
2018-12-11T12:58:47.416Z,99262.75
2018-12-11T13:01:16.421Z,99267.93
2018-12-11T13:03:45.784Z,99266.54
2018-12-11T13:06:14.477Z,99267.70
2018-12-11T13:08:43.418Z,99276.37
2018-12-11T13:11:12.592Z,99276.83
2018-12-11T13:13:41.648Z,99276.44
2018-12-11T13:16:10.436Z,99279.79
2018-12-11T13:18:39.515Z,99274.88
2018-12-11T13:21:08.541Z,99275.94
2018-12-11T13:23:37.771Z,99278.69
2018-12-11T13:26:06.444Z,99284.55
2018-12-11T13:28:35.453Z,99295.98
2018-12-11T13:31:04.129Z,99289.49
2018-12-11T13:33:33.444Z,99296.13
2018-12-11T13:36:02.387Z,99298.41
2018-12-11T13:38:31.450Z,99297.56
2018-12-11T13:41:00.093Z,99304.66
2018-12-11T13:43:29.077Z,99301.86
2018-12-11T13:45:58.700Z,99312.70
2018-12-11T13:48:27.870Z,99315.18
2018-12-11T13:50:57.034Z,99318.16
2018-12-11T13:53:26.223Z,99321.50
2018-12-11T13:55:55.188Z,99321.88
2018-12-11T13:58:23.860Z,99322.72
2018-12-11T14:00:52.853Z,99320.69
2018-12-11T14:03:21.796Z,99326.25
2018-12-11T14:05:50.846Z,99327.23
2018-12-11T14:08:19.957Z,99328.69
2018-12-11T14:10:48.866Z,99324.67
2018-12-11T14:13:17.935Z,99323.14
2018-12-11T14:15:46.694Z,99327.91
2018-12-11T14:18:15.393Z,99328.66
2018-12-11T14:20:44.452Z,99328.08
2018-12-11T14:23:13.261Z,99330.53
2018-12-11T14:25:42.283Z,99331.12
2018-12-11T14:28:11.247Z,99338.36
2018-12-11T14:30:40.385Z,99339.41
2018-12-11T14:33:09.376Z,99342.70
2018-12-11T14:35:38.126Z,99341.25
2018-12-11T14:38:06.915Z,99344.88
2018-12-11T14:40:36.139Z,99346.05
2018-12-11T14:43:04.846Z,99342.85
2018-12-11T14:45:33.542Z,99347.91
2018-12-11T14:48:03.439Z,99343.25
2018-12-11T14:50:33.406Z,99354.73
2018-12-11T14:53:03.203Z,99348.37
2018-12-11T14:55:32.204Z,99351.70
2018-12-11T14:58:01.168Z,99347.62
2018-12-11T15:00:30.136Z,99351.55
2018-12-11T15:02:59.545Z,99343.92
2018-12-11T15:05:28.441Z,99347.45
2018-12-11T15:07:57.789Z,99354.92
2018-12-11T15:10:27.279Z,99348.39
2018-12-11T15:12:56.899Z,99358.77
2018-12-11T15:15:25.847Z,99355.77
2018-12-11T15:17:55.607Z,99357.31
2018-12-11T15:20:24.996Z,99359.94
2018-12-11T15:22:54.045Z,99353.72
2018-12-11T15:25:23.257Z,99364.83
2018-12-11T15:27:52.481Z,99366.76
2018-12-11T15:30:21.294Z,99368.78
2018-12-11T15:32:50.524Z,99366.93
2018-12-11T15:35:19.475Z,99372.93
2018-12-11T15:37:49.196Z,99374.75
2018-12-11T15:40:17.974Z,99381.44
2018-12-11T15:42:47.330Z,99380.18
2018-12-11T15:45:16.347Z,99388.20
2018-12-11T15:47:45.319Z,99386.84
2018-12-11T15:50:14.351Z,99384.34
2018-12-11T15:52:43.512Z,99386.84
2018-12-11T15:55:12.654Z,99394.71
2018-12-11T15:57:41.818Z,99392.61
2018-12-11T16:00:12.298Z,99393.28
2018-12-11T16:02:41.035Z,99393.80
2018-12-11T16:05:10.086Z,99405.45
2018-12-11T16:07:39.198Z,99403.58
2018-12-11T16:10:08.756Z,99412.79
2018-12-11T16:12:38.038Z,99405.74
2018-12-11T16:15:06.965Z,99413.70
2018-12-11T16:17:35.796Z,99411.43
2018-12-11T16:20:05.443Z,99410.98
2018-12-11T16:22:34.727Z,99409.16
2018-12-11T16:25:03.676Z,99417.02
2018-12-11T16:27:32.903Z,99412.69
2018-12-11T16:30:02.176Z,99425.37
2018-12-11T16:32:31.228Z,99422.41
2018-12-11T16:35:00.154Z,99429.00
2018-12-11T16:37:29.736Z,99422.64
2018-12-11T16:40:04.584Z,99425.36
2018-12-11T16:42:30.345Z,99426.16
2018-12-11T16:44:59.098Z,99422.41
2018-12-11T16:47:27.871Z,99425.41
2018-12-11T16:49:56.953Z,99425.53
2018-12-11T16:52:26.515Z,99421.56
2018-12-11T16:54:55.397Z,99426.04
2018-12-11T16:57:24.416Z,99431.67
2018-12-11T16:59:53.438Z,99433.78
2018-12-11T17:02:22.921Z,99436.45
2018-12-11T17:04:52.010Z,99437.30
2018-12-11T17:07:20.989Z,99436.00
2018-12-11T17:09:50.267Z,99435.30
2018-12-11T17:12:19.323Z,99444.52
2018-12-11T17:14:48.425Z,99434.56
2018-12-11T17:17:17.387Z,99437.28
2018-12-11T17:19:46.644Z,99438.09
2018-12-11T17:22:15.681Z,99441.30
2018-12-11T17:24:44.381Z,99436.48
2018-12-11T17:27:13.450Z,99435.07
2018-12-11T17:29:43.235Z,99435.47
2018-12-11T17:32:12.419Z,99445.13
2018-12-11T17:34:41.584Z,99444.72
2018-12-11T17:37:10.378Z,99445.63
2018-12-11T17:39:39.274Z,99450.41
2018-12-11T17:42:08.165Z,99449.16
2018-12-11T17:44:37.476Z,99454.00
2018-12-11T17:47:06.540Z,99458.30
2018-12-11T17:49:35.671Z,99455.28
2018-12-11T17:52:04.855Z,99457.50
2018-12-11T17:54:33.924Z,99461.73
2018-12-11T17:57:02.791Z,99463.44
2018-12-11T17:59:31.880Z,99456.34
2018-12-11T18:02:05.223Z,99467.59
2018-12-11T18:04:34.370Z,99461.80
2018-12-11T18:07:03.074Z,99471.46
2018-12-11T18:09:32.052Z,99463.27
2018-12-11T18:12:01.146Z,99469.88
2018-12-11T18:14:30.379Z,99480.48
2018-12-11T18:16:59.394Z,99486.56
2018-12-11T18:19:28.547Z,99497.13
2018-12-11T18:21:57.553Z,99497.24
2018-12-11T18:24:26.313Z,99492.56
2018-12-11T18:26:55.461Z,99501.72
2018-12-11T18:29:24.648Z,99499.10
2018-12-11T18:31:53.603Z,99502.62
2018-12-11T18:34:22.923Z,99511.43
2018-12-11T18:36:51.836Z,99507.61
2018-12-11T18:39:20.792Z,99510.12
2018-12-11T18:41:49.826Z,99519.73
2018-12-11T18:44:19.026Z,99522.34
2018-12-11T18:46:48.282Z,99524.30
2018-12-11T18:49:16.943Z,99523.95
2018-12-11T18:51:45.925Z,99520.03
2018-12-11T18:54:15.171Z,99519.27
2018-12-11T18:56:43.984Z,99517.91
2018-12-11T18:59:13.049Z,99523.59
2018-12-11T19:01:42.739Z,99518.77
2018-12-11T19:04:11.444Z,99522.19
2018-12-11T19:06:40.167Z,99526.09
2018-12-11T19:09:09.176Z,99523.03
2018-12-11T19:11:38.197Z,99520.48
2018-12-11T19:14:07.109Z,99526.52
2018-12-11T19:16:36.054Z,99517.36
2018-12-11T19:19:05.433Z,99523.39
2018-12-11T19:21:34.235Z,99522.48
2018-12-11T19:24:09.757Z,99522.98
2018-12-11T19:26:38.644Z,99520.03
2018-12-11T19:29:07.630Z,99516.52
2018-12-11T19:31:36.886Z,99518.25
2018-12-11T19:34:06.061Z,99516.06
2018-12-11T19:36:35.163Z,99523.09
2018-12-11T19:39:05.359Z,99526.66
2018-12-11T19:41:34.058Z,99537.52
2018-12-11T19:44:03.156Z,99534.91
2018-12-11T19:46:32.444Z,99533.14
2018-12-11T19:49:01.668Z,99531.03
2018-12-11T19:51:30.644Z,99531.03
2018-12-11T19:53:59.655Z,99533.09
2018-12-11T19:56:28.639Z,99534.09
2018-12-11T19:58:57.657Z,99545.41
2018-12-11T20:01:26.479Z,99540.13
2018-12-11T20:03:55.483Z,99540.62
2018-12-11T20:06:24.626Z,99541.44
2018-12-11T20:08:53.536Z,99544.45
2018-12-11T20:11:22.346Z,99542.74
2018-12-11T20:13:51.587Z,99543.29
2018-12-11T20:16:20.333Z,99547.25
2018-12-11T20:18:49.130Z,99544.70
2018-12-11T20:21:18.271Z,99553.53
2018-12-11T20:23:47.629Z,99549.70
2018-12-11T20:26:16.433Z,99549.77
2018-12-11T20:28:45.371Z,99549.81
2018-12-11T20:31:14.472Z,99549.45
2018-12-11T20:33:43.653Z,99557.78
2018-12-11T20:36:12.411Z,99549.58
2018-12-11T20:38:42.352Z,99555.71
2018-12-11T20:41:11.635Z,99545.67
2018-12-11T20:43:40.742Z,99551.03
2018-12-11T20:46:09.937Z,99554.14
2018-12-11T20:48:38.875Z,99555.90
2018-12-11T20:51:07.714Z,99562.92
2018-12-11T20:53:36.819Z,99558.70
2018-12-11T20:56:05.940Z,99559.23
2018-12-11T20:58:35.023Z,99558.92
2018-12-11T21:01:03.986Z,99562.92
2018-12-11T21:03:32.695Z,99560.41
2018-12-11T21:06:01.630Z,99564.41
2018-12-11T21:08:31.578Z,99571.52
2018-12-11T21:11:00.709Z,99568.05
2018-12-11T21:13:30.064Z,99570.70
2018-12-11T21:15:59.136Z,99576.02
2018-12-11T21:18:28.807Z,99577.77
2018-12-11T21:20:58.934Z,99580.38
2018-12-11T21:23:28.098Z,99582.09
2018-12-11T21:25:57.120Z,99583.84
2018-12-11T21:28:26.423Z,99583.03
2018-12-11T21:30:55.138Z,99583.56
2018-12-11T21:33:24.055Z,99582.30
2018-12-11T21:35:53.192Z,99583.65
2018-12-11T21:38:22.414Z,99587.93
2018-12-11T21:40:51.421Z,99579.36
2018-12-11T21:43:20.463Z,99582.06
2018-12-11T21:45:49.309Z,99586.98
2018-12-11T21:48:18.465Z,99580.88
2018-12-11T21:50:47.224Z,99589.27
2018-12-11T21:53:16.357Z,99584.51
2018-12-11T21:55:45.401Z,99582.83
2018-12-11T21:58:14.261Z,99588.50
2018-12-11T22:00:43.414Z,99578.92
2018-12-11T22:03:12.442Z,99581.16
2018-12-11T22:05:41.348Z,99588.09
2018-12-11T22:08:10.248Z,99585.89
2018-12-11T22:10:39.303Z,99578.51
2018-12-11T22:13:08.424Z,99578.92
2018-12-11T22:15:37.876Z,99577.61
2018-12-11T22:18:07.006Z,99579.94
2018-12-11T22:20:36.198Z,99576.17
2018-12-11T22:23:05.163Z,99579.27
2018-12-11T22:25:33.922Z,99586.20
2018-12-11T22:28:03.359Z,99587.99
2018-12-11T22:30:32.291Z,99581.55
2018-12-11T22:33:01.274Z,99587.17
2018-12-11T22:35:30.268Z,99585.20
2018-12-11T22:37:59.365Z,99578.98
2018-12-11T22:40:28.135Z,99575.55
2018-12-11T22:42:56.864Z,99582.56
2018-12-11T22:45:25.876Z,99575.52
2018-12-11T22:47:54.641Z,99576.53
2018-12-11T22:50:23.368Z,99575.22
2018-12-11T22:52:52.146Z,99580.89
2018-12-11T22:55:21.050Z,99578.31
2018-12-11T22:57:50.180Z,99575.78
2018-12-11T23:00:19.910Z,99580.63
2018-12-11T23:02:49.092Z,99581.48
2018-12-11T23:05:18.005Z,99578.47
2018-12-11T23:07:47.086Z,99577.98
2018-12-11T23:10:16.284Z,99579.40
2018-12-11T23:12:45.029Z,99576.94
2018-12-11T23:15:14.053Z,99580.29
2018-12-11T23:17:43.161Z,99569.45
2018-12-11T23:20:12.237Z,99573.44
2018-12-11T23:22:41.445Z,99563.91
2018-12-11T23:25:10.544Z,99565.05
2018-12-11T23:27:39.337Z,99571.64
2018-12-11T23:30:08.399Z,99566.47
2018-12-11T23:32:37.308Z,99567.73
2018-12-11T23:35:07.748Z,99568.19
2018-12-11T23:37:37.354Z,99570.45
2018-12-11T23:40:06.843Z,99573.03
2018-12-11T23:42:35.948Z,99576.16
2018-12-11T23:45:05.399Z,99576.16
2018-12-11T23:47:34.436Z,99576.56
2018-12-11T23:50:03.183Z,99579.24
2018-12-11T23:52:31.989Z,99589.97
2018-12-11T23:55:00.810Z,99585.92
2018-12-11T23:57:29.497Z,99593.44
2018-12-11T23:59:58.615Z,99587.92
